Skulte, Latvia

3:23 PM EEST on August 30, 2014 (GMT +0300)
Riga International | Change Station
CLOSE
Current Station
Airport
Location: Riga,
Elevation: 30 ft
Nearby Weather Stations

Elev 30 ft 56.92 °N, 23.97 °E | Updated 3 minutes ago

Scattered Clouds
Scattered Clouds
63 °F
Feels Like 63 °F
N
7
Wind Variable Wind from NNW

Today
High -- | Low -- °F
--% Chance of Precip.
Yesterday
High -- | Low -- °F
Precip. -- in
6:21 AM 8:26 PM
Waxing Crescent, 21% visible
Pressure 30.01 in
Visibility 6.2 miles
Clouds Scattered Clouds 2800 ft
Dew Point 52 °F
Humidity 68%
Rainfall 0.00 in
Snow Depth Not available.
UV 4 out of 12
Pollen Not available.
Air Quality Not available.
Flu Activity Not available.
METAR EVRA 301220Z 33006KT 290V010 9999 SCT028 17/11 Q1016 NOSIG

More Conditions Fewer Conditions

Pressure 30.01 in
Visibility 6.2 miles
Clouds Scattered Clouds 2800 ft
Dew Point 52 °F
Humidity 68%
Rainfall 0.00 in
Snow Depth Not available.
UV 4 out of 12
Pollen Not available.
Air Quality Not available.
Flu Activity Not available.
METAR EVRA 301220Z 33006KT 290V010 9999 SCT028 17/11 Q1016 NOSIG

More Conditions Fewer Conditions

10-Day Weather Forecast

Almanac

Astronomy

Aug. 30, 2014 Rise Set
Actual Time 6:21 AM EEST 8:26 PM EEST
Civil Twilight 5:40 AM EEST 9:07 PM EEST
Nautical Twilight 4:48 AM EEST 9:59 PM EEST
Astronomical Twilight 3:44 AM EEST 11:01 PM EEST
Moon 11:50 AM EEST 9:45 PM EEST
Length of Visible Light 15h 26m
Length of Day
14h 04m
Tomorrow will be 4m 42s shorter.
Waxing Crescent, 21% of the Moon is Illuminated
Today
Waxing Crescent
Sep 2
First Quarter
Sep 8
Full
Sep 15
Last Quarter
Sep 24
New

Yesterday's Extremes

Country Highs Country Lows

Community

WunderPhotos

Upload Photos

1,748,500 photos uploaded!

WunderBlogs® & News

By Dr. Jeff Masters
Director of Meteorology, Weather Underground
By Kari Strenfel
Meteorologist, Weather Underground
By Christopher C. Burt
Weather Historian, Weather Underground
August 30, 2014
August 30, 2014
August 30, 2014

Nearby

Snow Depth

Not available.

Earthquake Activity

City Distance Mag. Time & Date
No recent earthquake activity has been reported nearby.
Minimum magnitude displayed is 2.5.

Coastal Water Temperatures

Place Temperature
No Stations Reporting

Nearby Weather Stations